Time;durP1;ratioP1;P1;durP2;ratioP2;P2;SDS_P1;SDS_P2;PMS_P1;PMS_P2;Temp;Humidity;BMP_temperature;BMP_pressure;BME280_temperature;BME280_humidity;BME280_pressure;Samples;Min_cycle;Max_cycle;Signal;HPM_P1;HPM_P2
2023/07/31 00:00:47;;;;;;;1.42;0.82;;;;;;;17.57;100.00;96374.34;5076918;28;20220;-67
2023/07/31 00:03:13;;;;;;;0.70;0.70;;;;;;;17.55;100.00;96378.25;5076680;28;20208;-67
2023/07/31 00:05:40;;;;;;;1.00;0.70;;;;;;;17.52;100.00;96376.84;5077092;28;20910;-67
2023/07/31 00:08:06;;;;;;;1.33;0.90;;;;;;;17.57;100.00;96374.34;5075716;28;20203;-67
2023/07/31 00:10:34;;;;;;;1.00;0.68;;;;;;;17.72;100.00;96375.66;5076826;28;20754;-67
2023/07/31 00:13:00;;;;;;;1.33;0.82;;;;;;;17.34;100.00;96373.28;5076416;28;20261;-67
2023/07/31 00:15:27;;;;;;;1.25;0.80;;;;;;;17.25;100.00;96364.72;5076587;28;20203;-67
2023/07/31 00:17:54;;;;;;;1.55;1.00;;;;;;;17.20;100.00;96361.88;5076087;28;20207;-67
2023/07/31 00:20:20;;;;;;;1.63;0.80;;;;;;;17.11;100.00;96371.13;5076767;28;20199;-67
2023/07/31 00:22:47;;;;;;;1.52;0.77;;;;;;;16.92;100.00;96367.78;5076213;28;20220;-67
2023/07/31 00:25:13;;;;;;;0.52;0.52;;;;;;;16.74;100.00;96368.47;5076631;28;20204;-67
2023/07/31 00:27:44;;;;;;;0.68;0.60;;;;;;;17.01;100.00;96361.97;5075983;28;20695;-67
2023/07/31 00:30:11;;;;;;;2.67;0.80;;;;;;;17.01;100.00;96363.84;5076332;28;20202;-67
2023/07/31 00:32:38;;;;;;;1.48;0.80;;;;;;;16.78;100.00;96361.69;5076160;28;20687;-67
2023/07/31 00:35:05;;;;;;;1.92;0.80;;;;;;;17.00;100.00;96357.69;5076899;28;20195;-67
2023/07/31 00:37:32;;;;;;;0.80;0.60;;;;;;;16.87;100.00;96363.09;5075666;28;20210;-67
2023/07/31 00:39:58;;;;;;;1.17;0.70;;;;;;;16.80;100.00;96366.78;5076472;28;20588;-67
2023/07/31 00:42:25;;;;;;;0.70;0.60;;;;;;;16.62;100.00;96364.00;5076729;28;20228;-67
2023/07/31 00:44:53;;;;;;;1.52;0.98;;;;;;;16.70;100.00;96363.75;5076099;28;20200;-67
2023/07/31 00:47:19;;;;;;;1.25;0.88;;;;;;;16.62;100.00;96356.88;5075855;28;20207;-67
2023/07/31 00:49:46;;;;;;;2.05;0.80;;;;;;;16.89;100.00;96369.03;5076804;28;20214;-67
2023/07/31 00:52:14;;;;;;;1.13;0.55;;;;;;;16.85;100.00;96364.31;5076215;28;20596;-66
2023/07/31 00:54:40;;;;;;;1.20;0.80;;;;;;;16.61;100.00;96357.88;5076073;28;20660;-67
2023/07/31 00:57:08;;;;;;;0.75;0.70;;;;;;;16.65;100.00;96355.63;5075748;28;20210;-67
2023/07/31 00:59:34;;;;;;;1.15;0.98;;;;;;;16.45;100.00;96360.19;5076396;28;20617;-67
2023/07/31 01:02:03;;;;;;;1.10;0.60;;;;;;;16.65;100.00;96361.75;5079947;28;20228;-67
2023/07/31 01:04:30;;;;;;;0.98;0.82;;;;;;;16.48;100.00;96360.59;5080710;28;20203;-67
2023/07/31 01:07:02;;;;;;;0.70;0.70;;;;;;;16.55;100.00;96358.72;5079471;28;20203;-67
2023/07/31 01:09:35;;;;;;;1.05;0.60;;;;;;;16.44;100.00;96355.09;5079925;28;20294;-67
2023/07/31 01:12:04;;;;;;;0.93;0.65;;;;;;;16.45;100.00;96359.38;5080077;28;20227;-67
2023/07/31 01:14:30;;;;;;;0.70;0.70;;;;;;;16.19;100.00;96367.38;5080313;28;20207;-67
2023/07/31 01:16:57;;;;;;;4.63;0.88;;;;;;;16.33;100.00;96361.88;5078960;28;20200;-67
2023/07/31 01:19:27;;;;;;;4.68;1.05;;;;;;;16.59;100.00;96365.25;5080208;28;20254;-67
2023/07/31 01:22:12;;;;;;;2.35;0.73;;;;;;;16.66;100.00;96362.56;5079665;28;20223;-67
2023/07/31 01:24:55;;;;;;;4.00;1.02;;;;;;;16.60;100.00;96358.09;5079752;28;20211;-67
2023/07/31 01:27:26;;;;;;;1.50;0.82;;;;;;;16.59;100.00;96359.13;5078874;28;20200;-67
2023/07/31 01:29:59;;;;;;;2.38;1.38;;;;;;;16.51;100.00;96346.06;5080096;28;20605;-67
2023/07/31 01:32:29;;;;;;;1.25;0.80;;;;;;;16.48;100.00;96354.44;5079712;28;20219;-67
2023/07/31 01:34:57;;;;;;;1.75;1.02;;;;;;;16.42;100.00;96347.31;5079594;28;20223;-67
2023/07/31 01:37:29;;;;;;;0.60;0.60;;;;;;;16.60;100.00;96336.81;5078691;28;20195;-67
2023/07/31 01:39:55;;;;;;;0.70;0.60;;;;;;;16.28;100.00;96337.75;5079189;28;20214;-67
2023/07/31 01:42:23;;;;;;;1.42;0.80;;;;;;;16.32;100.00;96332.81;5079827;28;20227;-67
2023/07/31 01:44:50;;;;;;;1.65;0.88;;;;;;;16.23;100.00;96334.88;5079688;28;20215;-67
2023/07/31 01:47:16;;;;;;;1.50;0.80;;;;;;;16.20;100.00;96329.94;5078181;28;20683;-67
2023/07/31 01:49:43;;;;;;;1.33;0.70;;;;;;;16.21;100.00;96333.44;5079278;28;20223;-67
2023/07/31 01:52:09;;;;;;;0.70;0.70;;;;;;;16.12;100.00;96324.06;5079416;28;20231;-67
2023/07/31 01:54:36;;;;;;;0.82;0.60;;;;;;;16.12;100.00;96321.41;5078610;28;20207;-67
2023/07/31 01:57:03;;;;;;;0.95;0.60;;;;;;;16.11;100.00;96322.41;5078556;28;20303;-67
2023/07/31 01:59:31;;;;;;;1.20;0.80;;;;;;;16.29;100.00;96318.09;5079386;28;20212;-67
2023/07/31 02:01:57;;;;;;;1.30;0.88;;;;;;;16.21;100.00;96315.63;5078881;28;20238;-67
2023/07/31 02:04:24;;;;;;;1.38;0.75;;;;;;;16.05;100.00;96324.09;5079114;28;20212;-67
2023/07/31 02:06:50;;;;;;;3.13;1.35;;;;;;;15.98;100.00;96312.63;5078465;28;20212;-67
2023/07/31 02:09:17;;;;;;;1.08;0.85;;;;;;;15.96;100.00;96313.84;5078983;28;20196;-67
2023/07/31 02:11:43;;;;;;;0.85;0.73;;;;;;;16.01;100.00;96306.09;5078212;28;21235;-67
2023/07/31 02:14:10;;;;;;;1.80;0.90;;;;;;;16.06;100.00;96301.78;5078673;28;20200;-67
2023/07/31 02:16:37;;;;;;;1.20;0.70;;;;;;;16.37;100.00;96299.25;5078667;28;20762;-67
2023/07/31 02:19:04;;;;;;;1.05;0.80;;;;;;;15.96;100.00;96305.88;5078017;28;20200;-67
2023/07/31 02:21:30;;;;;;;1.45;1.00;;;;;;;15.92;100.00;96297.53;5078701;28;20219;-66
2023/07/31 02:23:57;;;;;;;0.73;0.65;;;;;;;15.93;100.00;96291.16;5078558;28;20211;-67
2023/07/31 02:26:23;;;;;;;2.50;0.80;;;;;;;15.95;100.00;96280.34;5078592;28;20200;-67
2023/07/31 02:28:50;;;;;;;1.00;0.80;;;;;;;15.88;100.00;96276.88;5077806;28;20203;-67
2023/07/31 02:31:16;;;;;;;0.65;0.65;;;;;;;15.93;100.00;96280.53;5078716;28;20851;-67
2023/07/31 02:33:44;;;;;;;0.93;0.63;;;;;;;16.01;100.00;96280.34;5078874;28;20196;-66
2023/07/31 02:36:11;;;;;;;1.98;1.08;;;;;;;15.76;100.00;96281.22;5078376;28;20219;-67
2023/07/31 02:38:37;;;;;;;1.77;1.35;;;;;;;15.70;100.00;96279.38;5077960;28;20210;-67
2023/07/31 02:41:04;;;;;;;1.65;1.00;;;;;;;15.85;100.00;96294.06;5077677;28;20234;-67
2023/07/31 02:43:30;;;;;;;3.38;1.02;;;;;;;15.72;100.00;96282.66;5075849;28;20909;-67
2023/07/31 02:45:56;;;;;;;1.13;1.00;;;;;;;15.80;100.00;96295.72;5078185;28;20208;-67
2023/07/31 02:48:23;;;;;;;0.73;0.70;;;;;;;15.69;100.00;96293.69;5077894;28;20195;-67
2023/07/31 02:50:51;;;;;;;1.40;0.70;;;;;;;15.84;100.00;96296.94;5077703;28;21218;-67
2023/07/31 02:53:17;;;;;;;0.80;0.80;;;;;;;15.71;100.00;96296.16;5078537;28;20215;-67
2023/07/31 02:55:44;;;;;;;2.17;0.95;;;;;;;15.73;100.00;96294.09;5078080;28;20206;-67
2023/07/31 02:58:10;;;;;;;2.47;0.70;;;;;;;15.77;100.00;96285.50;5077120;28;21124;-67
2023/07/31 03:00:37;;;;;;;0.95;0.90;;;;;;;15.82;100.00;96282.22;5078407;28;20226;-67
2023/07/31 03:03:03;;;;;;;1.10;0.80;;;;;;;15.84;100.00;96282.84;5078000;28;20234;-67
2023/07/31 03:05:30;;;;;;;2.15;0.93;;;;;;;15.92;100.00;96284.25;5077653;28;20203;-66
2023/07/31 03:07:57;;;;;;;1.77;0.90;;;;;;;16.13;100.00;96278.66;5076765;28;20289;-66
2023/07/31 03:10:24;;;;;;;1.48;1.00;;;;;;;15.96;100.00;96280.16;5078883;28;20195;-67
2023/07/31 03:12:50;;;;;;;0.80;0.65;;;;;;;15.94;100.00;96292.81;5077259;28;20207;-67
2023/07/31 03:15:17;;;;;;;1.27;0.80;;;;;;;15.87;100.00;96291.19;5077721;28;20577;-67
2023/07/31 03:17:43;;;;;;;1.23;1.10;;;;;;;15.87;100.00;96284.06;5076866;28;20840;-67
2023/07/31 03:20:11;;;;;;;12.63;1.02;;;;;;;16.05;100.00;96278.06;5077827;28;20203;-67
2023/07/31 03:22:38;;;;;;;3.17;1.02;;;;;;;15.94;100.00;96279.53;5077286;28;20223;-67
2023/07/31 03:25:06;;;;;;;1.42;0.85;;;;;;;16.26;100.00;96281.28;5076771;28;20215;-67
2023/07/31 03:27:33;;;;;;;1.15;0.85;;;;;;;16.02;100.00;96275.81;5076863;28;20558;-66
2023/07/31 03:30:00;;;;;;;1.27;0.88;;;;;;;16.11;100.00;96270.06;5077296;28;20204;-67
2023/07/31 03:32:27;;;;;;;1.00;0.70;;;;;;;16.10;100.00;96272.94;5077425;28;20223;-66
2023/07/31 03:34:53;;;;;;;1.23;0.75;;;;;;;16.07;100.00;96268.03;5077456;28;20204;-67
2023/07/31 03:37:20;;;;;;;1.77;1.25;;;;;;;16.09;100.00;96268.66;5076182;28;20199;-67
2023/07/31 03:39:46;;;;;;;1.27;0.95;;;;;;;16.09;100.00;96274.78;5077371;28;20924;-66
2023/07/31 03:42:14;;;;;;;2.05;1.00;;;;;;;16.34;100.00;96267.75;5077407;28;20224;-67
2023/07/31 03:44:41;;;;;;;1.48;1.00;;;;;;;16.15;100.00;96267.81;5077015;28;20947;-67
2023/07/31 03:47:07;;;;;;;4.35;1.20;;;;;;;16.08;100.00;96275.81;5076451;28;20215;-67
2023/07/31 03:49:34;;;;;;;1.23;0.90;;;;;;;16.21;100.00;96273.09;5077171;28;20207;-66
2023/07/31 03:52:00;;;;;;;1.80;1.30;;;;;;;16.27;100.00;96274.16;5077238;28;20220;-67
2023/07/31 03:54:27;;;;;;;0.90;0.77;;;;;;;16.23;100.00;96265.72;5077141;28;20246;-67
2023/07/31 03:56:53;;;;;;;0.82;0.80;;;;;;;16.29;100.00;96264.91;5076576;28;20204;-67
2023/07/31 03:59:21;;;;;;;1.90;1.15;;;;;;;16.42;100.00;96259.56;5077133;28;20664;-67
2023/07/31 04:01:48;;;;;;;1.75;1.17;;;;;;;16.24;100.00;96258.56;5076693;28;20219;-67
2023/07/31 04:04:14;;;;;;;2.03;1.27;;;;;;;16.23;100.00;96260.41;5076904;28;20204;-67
2023/07/31 04:06:41;;;;;;;1.48;1.30;;;;;;;16.27;100.00;96256.34;5076968;28;20667;-67
2023/07/31 04:09:07;;;;;;;3.03;1.75;;;;;;;16.27;100.00;96251.00;5076044;28;20204;-67
2023/07/31 04:11:34;;;;;;;2.42;0.90;;;;;;;16.32;100.00;96248.53;5076805;28;20712;-67
2023/07/31 04:14:00;;;;;;;1.65;1.13;;;;;;;16.37;100.00;96240.75;5077349;28;20215;-67
2023/07/31 04:16:28;;;;;;;2.80;1.00;;;;;;;16.64;100.00;96244.91;5076627;28;20200;-66
2023/07/31 04:18:54;;;;;;;1.60;1.15;;;;;;;16.55;100.00;96249.63;5075869;28;20230;-67
2023/07/31 04:21:21;;;;;;;5.32;1.60;;;;;;;16.57;100.00;96263.56;5077160;28;20219;-66
2023/07/31 04:23:47;;;;;;;2.17;1.23;;;;;;;16.58;100.00;96253.72;5076180;28;20223;-66
2023/07/31 04:26:14;;;;;;;3.92;1.25;;;;;;;16.68;100.00;96256.75;5076265;28;20204;-66
2023/07/31 04:28:40;;;;;;;1.48;0.88;;;;;;;16.67;100.00;96266.53;5077019;28;20218;-67
2023/07/31 04:31:07;;;;;;;2.03;1.20;;;;;;;16.77;100.00;96266.09;5077062;28;20212;-67
2023/07/31 04:33:35;;;;;;;0.95;0.90;;;;;;;17.05;100.00;96266.53;5076339;28;20202;-67
2023/07/31 04:36:01;;;;;;;2.78;1.08;;;;;;;16.78;100.00;96267.75;5076251;28;20638;-67
2023/07/31 04:38:28;;;;;;;6.65;1.80;;;;;;;16.92;100.00;96269.28;5076150;28;20206;-67
2023/07/31 04:40:54;;;;;;;1.08;0.90;;;;;;;16.94;100.00;96260.06;5076294;28;20234;-66
2023/07/31 04:43:20;;;;;;;4.18;1.35;;;;;;;17.00;100.00;96264.50;5076274;28;20223;-66
2023/07/31 04:45:48;;;;;;;3.17;1.38;;;;;;;17.08;100.00;96257.09;5076332;28;20684;-67
2023/07/31 04:48:14;;;;;;;2.53;1.65;;;;;;;17.22;100.00;96269.25;5075301;28;20200;-66
2023/07/31 04:50:42;;;;;;;1.70;1.23;;;;;;;17.44;100.00;96253.75;5076553;28;20216;-67
2023/07/31 04:53:09;;;;;;;2.53;1.85;;;;;;;17.29;100.00;96258.59;5076639;28;20206;-66
2023/07/31 04:55:35;;;;;;;1.58;1.02;;;;;;;17.08;100.00;96263.44;5075945;28;20203;-66
2023/07/31 04:58:02;;;;;;;1.77;1.20;;;;;;;17.39;100.00;96264.25;5075447;28;20575;-67
2023/07/31 05:00:28;;;;;;;5.07;1.60;;;;;;;17.49;100.00;96264.53;5076443;28;20219;-66
2023/07/31 05:02:55;;;;;;;4.28;1.35;;;;;;;17.40;100.00;96265.84;5076136;28;20219;-67
2023/07/31 05:05:21;;;;;;;1.38;1.00;;;;;;;17.55;100.00;96263.69;5076558;28;20200;-67
2023/07/31 05:07:49;;;;;;;2.45;1.00;;;;;;;17.91;100.00;96253.91;5075420;28;21064;-66
2023/07/31 05:10:16;;;;;;;4.20;1.05;;;;;;;17.72;100.00;96262.91;5075886;28;20207;-66
2023/07/31 05:12:42;;;;;;;1.85;1.13;;;;;;;17.89;100.00;96266.63;5076296;28;20222;-67
2023/07/31 05:15:10;;;;;;;1.33;1.23;;;;;;;18.02;100.00;96253.16;5075698;28;20211;-67
2023/07/31 05:17:36;;;;;;;4.05;1.30;;;;;;;18.06;100.00;96262.31;5074936;28;20207;-67
2023/07/31 05:20:03;;;;;;;2.05;0.90;;;;;;;18.01;100.00;96259.50;5076481;28;20208;-66
2023/07/31 05:22:29;;;;;;;1.17;0.82;;;;;;;18.11;100.00;96257.16;5076093;28;20671;-67
2023/07/31 05:24:57;;;;;;;1.77;0.98;;;;;;;18.49;100.00;96262.03;5075651;28;20204;-67
2023/07/31 05:27:24;;;;;;;3.22;1.67;;;;;;;18.45;100.00;96268.06;5075382;28;20672;-67
2023/07/31 05:29:50;;;;;;;1.85;1.23;;;;;;;18.54;100.00;96266.69;5076076;28;20208;-67
2023/07/31 05:32:17;;;;;;;2.22;1.15;;;;;;;18.51;100.00;96269.81;5075980;28;20235;-67
2023/07/31 05:34:43;;;;;;;4.35;1.10;;;;;;;18.54;100.00;96272.84;5076105;28;20203;-67
2023/07/31 05:37:11;;;;;;;2.55;1.20;;;;;;;18.76;100.00;96266.00;5074858;28;20207;-66
2023/07/31 05:39:38;;;;;;;1.55;1.10;;;;;;;18.29;100.00;96259.84;5076428;28;20204;-67
2023/07/31 05:42:06;;;;;;;6.53;1.25;;;;;;;18.85;100.00;96263.81;5075598;28;20215;-67
2023/07/31 05:44:33;;;;;;;5.60;1.30;;;;;;;18.08;100.00;96273.59;5075495;28;20230;-66
2023/07/31 05:46:59;;;;;;;1.02;0.82;;;;;;;18.21;100.00;96270.81;5075418;28;20207;-67
2023/07/31 05:49:26;;;;;;;1.25;0.80;;;;;;;18.11;100.00;96263.28;5079274;28;20204;-67
2023/07/31 05:51:52;;;;;;;2.90;0.73;;;;;;;18.39;100.00;96263.59;5079176;28;20239;-66
2023/07/31 05:54:19;;;;;;;3.53;1.05;;;;;;;18.57;100.00;96255.56;5079508;28;20207;-66
2023/07/31 05:56:45;;;;;;;0.63;0.52;;;;;;;18.46;100.00;96265.16;5078841;28;21154;-67
2023/07/31 05:59:14;;;;;;;2.08;0.85;;;;;;;18.81;100.00;96263.44;5076303;28;20652;-66
2023/07/31 06:01:40;;;;;;;1.58;0.93;;;;;;;18.74;100.00;96262.72;5076308;28;20231;-67
2023/07/31 06:04:07;;;;;;;2.25;0.85;;;;;;;18.66;100.00;96260.38;5077582;28;20212;-66
2023/07/31 06:06:33;;;;;;;1.98;0.90;;;;;;;18.83;100.00;96258.69;5078562;28;20774;-67
2023/07/31 06:09:00;;;;;;;1.85;0.70;;;;;;;19.02;100.00;96249.59;5077487;28;21111;-67
2023/07/31 06:11:26;;;;;;;0.80;0.80;;;;;;;19.12;100.00;96245.34;5077768;28;20229;-67
2023/07/31 06:13:53;;;;;;;1.13;0.73;;;;;;;19.05;100.00;96247.28;5078469;28;20578;-67
2023/07/31 06:16:21;;;;;;;4.78;1.52;;;;;;;19.43;100.00;96241.56;5078735;28;20568;-67
2023/07/31 06:18:48;;;;;;;0.90;0.57;;;;;;;19.27;100.00;96252.91;5077436;28;20200;-67
2023/07/31 06:21:14;;;;;;;0.70;0.70;;;;;;;19.45;100.00;96250.97;5077944;28;20329;-67
2023/07/31 06:23:41;;;;;;;1.58;0.75;;;;;;;19.56;100.00;96246.69;5077785;28;20220;-67
2023/07/31 06:26:07;;;;;;;1.42;1.17;;;;;;;19.45;100.00;96247.47;5077866;28;20200;-67
2023/07/31 06:28:34;;;;;;;0.45;0.45;;;;;;;19.26;100.00;96256.66;5077304;28;20200;-67
2023/07/31 06:31:00;;;;;;;3.15;0.80;;;;;;;19.26;100.00;96245.97;5077144;28;20719;-67
2023/07/31 06:33:28;;;;;;;2.72;0.50;;;;;;;19.52;100.00;96248.19;5077891;28;20600;-67
2023/07/31 06:35:55;;;;;;;1.70;1.02;;;;;;;19.13;100.00;96252.31;5078730;28;20215;-67
2023/07/31 06:38:25;;;;;;;0.77;0.55;;;;;;;19.34;100.00;96250.97;5077428;28;20208;-67
2023/07/31 06:40:51;;;;;;;0.90;0.70;;;;;;;18.89;100.00;96251.63;5077205;28;20353;-66
2023/07/31 06:43:18;;;;;;;0.98;0.68;;;;;;;18.99;100.00;96258.03;5077967;28;20716;-67
2023/07/31 06:45:45;;;;;;;0.82;0.60;;;;;;;19.25;100.00;96247.81;5078413;28;20203;-67
2023/07/31 06:48:12;;;;;;;0.82;0.82;;;;;;;19.25;100.00;96252.34;5076988;28;20208;-67
2023/07/31 06:50:40;;;;;;;2.25;1.20;;;;;;;19.41;100.00;96251.66;5078133;28;20200;-67
2023/07/31 06:53:06;;;;;;;4.38;0.75;;;;;;;19.58;100.00;96248.88;5077825;28;20200;-67
2023/07/31 06:55:33;;;;;;;2.72;1.10;;;;;;;19.64;100.00;96234.59;5077501;28;20211;-67
2023/07/31 06:57:59;;;;;;;1.80;0.88;;;;;;;19.67;100.00;96236.78;5076745;28;21123;-67
2023/07/31 07:00:26;;;;;;;0.95;0.65;;;;;;;19.95;100.00;96236.94;5077707;28;20199;-67
2023/07/31 07:02:52;;;;;;;0.93;0.77;;;;;;;19.78;100.00;96235.16;5077515;28;20814;-67
2023/07/31 07:05:19;;;;;;;1.02;0.70;;;;;;;19.89;100.00;96237.03;5077902;28;20203;-67
2023/07/31 07:07:47;;;;;;;0.82;0.80;;;;;;;19.76;100.00;96230.03;5076742;28;20211;-67
2023/07/31 07:10:13;;;;;;;0.52;0.52;;;;;;;19.67;100.00;96234.13;5077233;28;20204;-67
2023/07/31 07:12:40;;;;;;;0.90;0.80;;;;;;;19.69;100.00;96237.38;5077111;28;20707;-67
2023/07/31 07:15:07;;;;;;;1.42;0.90;;;;;;;19.64;100.00;96234.59;5077596;28;20207;-67
2023/07/31 07:17:34;;;;;;;1.25;0.70;;;;;;;19.47;100.00;96227.50;5076520;28;20199;-67
2023/07/31 07:20:01;;;;;;;4.00;0.60;;;;;;;19.52;100.00;96232.97;5077298;28;20663;-67
2023/07/31 07:22:27;;;;;;;1.23;1.02;;;;;;;19.44;100.00;96232.50;5076229;28;20231;-67
2023/07/31 07:24:55;;;;;;;0.98;0.68;;;;;;;19.90;100.00;96246.69;5077754;28;20230;-67
2023/07/31 07:27:22;;;;;;;1.00;0.43;;;;;;;19.66;100.00;96235.16;5074393;28;20211;-67
2023/07/31 07:29:51;;;;;;;1.92;0.93;;;;;;;20.04;100.00;96238.19;5074375;28;20234;-67
2023/07/31 07:32:18;;;;;;;1.02;0.82;;;;;;;19.78;100.00;96240.50;5075976;28;20734;-67
2023/07/31 07:34:44;;;;;;;0.90;0.70;;;;;;;19.77;100.00;96244.25;5075676;28;21303;-67
2023/07/31 07:37:12;;;;;;;0.73;0.60;;;;;;;19.53;100.00;96241.81;5074524;28;21676;-67
2023/07/31 07:39:38;;;;;;;1.50;0.98;;;;;;;19.87;100.00;96241.78;5075346;28;20200;-66
2023/07/31 07:42:07;;;;;;;1.17;0.60;;;;;;;20.06;100.00;96238.78;5073896;28;20470;-67
2023/07/31 07:44:33;;;;;;;0.63;0.52;;;;;;;19.85;100.00;96231.31;5075189;28;20219;-67
2023/07/31 07:47:00;;;;;;;0.68;0.50;;;;;;;20.04;100.00;96235.53;5075172;28;20208;-67
2023/07/31 07:49:26;;;;;;;1.17;0.60;;;;;;;19.97;100.00;96239.38;5075488;28;20196;-67
2023/07/31 07:51:53;;;;;;;1.25;0.60;;;;;;;20.00;100.00;96234.38;5074693;28;20706;-67
2023/07/31 07:54:20;;;;;;;2.25;0.70;;;;;;;19.99;95.96;96238.09;5076541;28;20196;-67
2023/07/31 07:56:47;;;;;;;5.05;0.73;;;;;;;19.99;94.34;96229.25;5075413;28;20207;-67
2023/07/31 07:59:15;;;;;;;1.10;0.70;;;;;;;20.32;94.18;96243.59;5074157;28;20200;-67
2023/07/31 08:01:42;;;;;;;0.80;0.63;;;;;;;20.21;92.15;96237.25;5076165;28;20277;-67
2023/07/31 08:04:08;;;;;;;1.35;0.88;;;;;;;20.14;91.05;96241.09;5075315;28;20231;-67
2023/07/31 08:06:35;;;;;;;0.60;0.60;;;;;;;20.40;91.01;96251.25;5074660;28;21123;-67
2023/07/31 08:09:05;;;;;;;2.90;0.88;;;;;;;20.54;89.75;96242.72;5072281;28;20200;-67
2023/07/31 08:11:31;;;;;;;0.98;0.40;;;;;;;20.39;89.82;96244.28;5073827;28;20284;-67
2023/07/31 08:13:58;;;;;;;1.38;0.50;;;;;;;20.34;91.31;96236.97;5074842;28;20365;-67
2023/07/31 08:16:26;;;;;;;0.70;0.65;;;;;;;21.17;89.36;96238.84;5074100;28;20204;-67
2023/07/31 08:18:52;;;;;;;3.35;0.88;;;;;;;21.20;87.87;96238.34;5074064;28;20969;-66
2023/07/31 08:21:19;;;;;;;2.05;1.13;;;;;;;21.13;87.26;96240.41;5072875;28;20815;-67
2023/07/31 08:23:45;;;;;;;1.48;1.08;;;;;;;21.03;87.02;96239.41;5073864;28;20227;-67
2023/07/31 08:26:15;;;;;;;0.50;0.50;;;;;;;20.98;86.04;96224.03;5073872;28;20719;-67
2023/07/31 08:28:42;;;;;;;0.93;0.85;;;;;;;20.64;87.31;96231.41;5074944;28;20206;-66
2023/07/31 08:31:09;;;;;;;1.05;0.90;;;;;;;20.50;87.39;96224.69;5074782;28;20227;-66
2023/07/31 08:33:36;;;;;;;1.05;0.70;;;;;;;20.66;89.19;96223.94;5074586;28;20199;-66
2023/07/31 08:36:03;;;;;;;3.25;0.63;;;;;;;20.29;91.93;96222.69;5073831;28;20204;-66
2023/07/31 08:38:31;;;;;;;6.82;1.35;;;;;;;20.27;89.59;96222.09;5074658;28;20196;-67
2023/07/31 08:40:57;;;;;;;1.77;0.80;;;;;;;20.48;89.02;96214.25;5075355;28;20224;-67
2023/07/31 08:43:27;;;;;;;0.77;0.47;;;;;;;20.47;89.44;96206.44;5074921;28;20211;-66
2023/07/31 08:45:53;;;;;;;1.15;0.40;;;;;;;20.18;90.11;96218.16;5074727;28;20208;-67
2023/07/31 08:48:22;;;;;;;3.05;0.75;;;;;;;20.52;88.91;96219.91;5074331;28;20579;-67
2023/07/31 08:50:50;;;;;;;2.22;0.60;;;;;;;20.97;86.99;96217.06;5074505;28;20224;-67
2023/07/31 08:53:17;;;;;;;3.65;0.68;;;;;;;20.88;86.81;96220.38;5073981;28;20195;-67
2023/07/31 08:55:45;;;;;;;1.83;0.60;;;;;;;21.06;88.67;96220.16;5074544;28;20973;-67
2023/07/31 08:58:13;;;;;;;0.73;0.50;;;;;;;21.57;84.33;96212.72;5074344;28;20204;-67
2023/07/31 09:00:41;;;;;;;4.80;1.25;;;;;;;21.52;85.23;96205.44;5074064;28;20752;-67
2023/07/31 09:03:10;;;;;;;0.50;0.50;;;;;;;21.48;81.86;96198.06;5074027;28;20214;-67
2023/07/31 09:05:40;;;;;;;1.85;0.65;;;;;;;21.97;82.57;96194.53;5074419;28;20565;-67
2023/07/31 09:08:10;;;;;;;0.98;0.70;;;;;;;21.91;80.65;96187.47;5074708;28;20200;-67
2023/07/31 09:10:41;;;;;;;2.20;1.00;;;;;;;21.67;80.98;96202.94;5074796;28;20689;-67
2023/07/31 09:13:08;;;;;;;0.50;0.50;;;;;;;21.86;78.39;96184.72;5074846;28;20204;-67
2023/07/31 09:15:35;;;;;;;1.25;0.95;;;;;;;22.24;81.83;96188.19;5075730;28;20582;-67
2023/07/31 09:18:03;;;;;;;1.10;0.70;;;;;;;22.20;78.18;96187.06;5073827;28;20203;-67
2023/07/31 09:20:30;;;;;;;0.95;0.70;;;;;;;21.95;77.07;96184.03;5074851;28;20210;-69
2023/07/31 09:23:05;;;;;;;0.68;0.50;;;;;;;22.39;76.39;96181.16;5077339;28;20218;-67
2023/07/31 09:25:33;;;;;;;1.58;0.80;;;;;;;22.50;74.71;96165.94;5078937;28;20250;-67
2023/07/31 09:28:02;;;;;;;4.38;1.13;;;;;;;22.47;76.38;96167.28;5077970;28;20203;-67
2023/07/31 09:30:29;;;;;;;0.63;0.57;;;;;;;22.40;72.78;96166.66;5078800;28;20723;-67
2023/07/31 09:33:02;;;;;;;0.88;0.68;;;;;;;22.42;72.93;96159.16;5078750;28;20310;-67
2023/07/31 09:35:30;;;;;;;0.30;0.30;;;;;;;22.61;71.62;96173.88;5079487;28;20566;-67
2023/07/31 09:37:59;;;;;;;0.80;0.40;;;;;;;22.64;69.78;96162.59;5078761;28;20199;-67
2023/07/31 09:40:30;;;;;;;5.25;0.75;;;;;;;23.32;70.98;96161.66;5078875;28;20660;-67
2023/07/31 09:43:00;;;;;;;1.52;0.88;;;;;;;23.70;69.39;96147.97;5079277;28;20207;-67
2023/07/31 09:45:27;;;;;;;1.15;0.65;;;;;;;23.43;66.62;96149.91;5079746;28;20219;-67
2023/07/31 09:47:54;;;;;;;2.17;0.75;;;;;;;23.47;68.53;96142.13;5078429;28;20204;-67
2023/07/31 09:50:22;;;;;;;1.05;0.73;;;;;;;23.41;66.43;96135.09;5079098;28;20196;-67
2023/07/31 09:52:49;;;;;;;0.32;0.32;;;;;;;23.13;65.57;96126.53;5079785;28;20269;-67
2023/07/31 09:55:15;;;;;;;2.22;0.65;;;;;;;23.26;65.62;96123.44;5079468;28;20199;-67
2023/07/31 09:57:43;;;;;;;4.55;0.70;;;;;;;23.98;66.47;96129.56;5077825;28;20200;-67
2023/07/31 10:00:13;;;;;;;2.28;0.73;;;;;;;24.13;61.53;96136.88;5079005;28;20218;-67
2023/07/31 10:02:40;;;;;;;1.85;0.93;;;;;;;24.18;61.10;96134.22;5078856;28;20230;-67
2023/07/31 10:05:08;;;;;;;0.40;0.40;;;;;;;24.49;63.27;96130.56;5078138;28;20223;-67
2023/07/31 10:07:39;;;;;;;0.43;0.40;;;;;;;24.04;57.94;96128.50;5078122;28;20200;-67
2023/07/31 10:10:07;;;;;;;1.30;0.75;;;;;;;23.60;59.26;96129.03;5078928;28;20659;-67
2023/07/31 10:12:35;;;;;;;0.60;0.60;;;;;;;23.52;59.59;96124.16;5078856;28;20236;-67
2023/07/31 10:15:02;;;;;;;2.33;0.80;;;;;;;23.55;59.53;96128.22;5078788;28;21137;-67
2023/07/31 10:17:31;;;;;;;0.75;0.50;;;;;;;24.27;59.99;96122.66;5077656;28;20206;-67
2023/07/31 10:19:59;;;;;;;0.50;0.50;;;;;;;24.35;58.37;96121.31;5077520;28;20215;-67
2023/07/31 10:22:26;;;;;;;0.43;0.30;;;;;;;23.77;58.36;96110.06;5079159;28;20228;-67
2023/07/31 10:24:55;;;;;;;0.75;0.75;;;;;;;23.83;58.59;96098.22;5078299;28;20220;-67
2023/07/31 10:27:22;;;;;;;0.95;0.60;;;;;;;23.65;58.58;96091.41;5077418;28;20209;-67
2023/07/31 10:29:49;;;;;;;3.30;0.80;;;;;;;23.95;58.97;96083.50;5074190;28;20749;-67
2023/07/31 10:32:18;;;;;;;1.60;0.80;;;;;;;24.14;57.51;96092.72;5076708;28;20224;-67
2023/07/31 10:34:47;;;;;;;0.30;0.30;;;;;;;24.41;58.26;96085.28;5076403;28;20195;-67
2023/07/31 10:37:24;;;;;;;3.83;0.85;;;;;;;24.86;57.79;96081.59;5075919;28;21014;-67
2023/07/31 10:40:02;;;;;;;1.67;0.95;;;;;;;25.01;56.09;96073.47;5077213;28;20237;-67
2023/07/31 10:42:34;;;;;;;2.53;0.75;;;;;;;24.61;55.80;96076.16;5070846;28;20239;-67
2023/07/31 10:45:03;;;;;;;2.17;0.40;;;;;;;24.57;57.27;96067.00;5076248;28;21225;-67
2023/07/31 10:47:30;;;;;;;1.95;0.52;;;;;;;24.46;58.90;96077.22;5077013;28;20206;-67
2023/07/31 10:50:18;;;;;;;0.73;0.50;;;;;;;24.56;56.26;96070.75;5072471;28;20234;-67
2023/07/31 10:52:48;;;;;;;3.55;0.50;;;;;;;24.57;57.80;96064.28;5076403;28;20281;-67
2023/07/31 10:55:33;;;;;;;0.82;0.65;;;;;;;24.81;56.20;96056.53;5076665;28;20257;-67
2023/07/31 10:58:07;;;;;;;5.13;1.00;;;;;;;24.97;55.78;96048.13;5075268;28;20204;-68
2023/07/31 11:00:34;;;;;;;0.50;0.50;;;;;;;24.79;55.80;96045.97;5075291;28;20208;-67
2023/07/31 11:03:03;;;;;;;0.30;0.30;;;;;;;25.03;55.72;96044.38;5076339;28;20204;-67
2023/07/31 11:05:48;;;;;;;5.68;0.70;;;;;;;25.01;55.09;96040.31;5076604;28;20226;-67
2023/07/31 11:08:16;;;;;;;5.80;0.45;;;;;;;24.81;55.42;96033.06;5075823;28;20223;-68
2023/07/31 11:10:43;;;;;;;0.73;0.40;;;;;;;24.93;55.67;96028.19;5076224;28;20294;-67
2023/07/31 11:13:10;;;;;;;3.83;1.33;;;;;;;25.36;53.99;96022.22;5075843;28;20919;-67
2023/07/31 11:15:36;;;;;;;0.50;0.50;;;;;;;25.39;55.43;96027.06;5075781;28;20200;-68
2023/07/31 11:18:05;;;;;;;0.50;0.40;;;;;;;24.80;54.52;96031.44;5074434;28;20208;-67
2023/07/31 11:20:32;;;;;;;1.10;0.80;;;;;;;24.66;54.58;96024.97;5075724;28;20227;-67
2023/07/31 11:23:02;;;;;;;1.00;0.68;;;;;;;25.16;54.17;96013.38;5075138;28;20212;-67
2023/07/31 11:25:31;;;;;;;0.45;0.38;;;;;;;25.19;54.11;96025.22;5075149;28;20222;-67
2023/07/31 11:27:57;;;;;;;0.80;0.43;;;;;;;25.49;56.08;96016.25;5074693;28;20210;-67